PWSweather.com
Personal Weather Stations
Station Observations
DW1039
Liberty & Fairfield Townships, Hamilton, OH 45011

Liberty & Fairfield TownshipsHamilton, OH 45011

Lat: 39.3933, Lon: -84.477

Elevation: 780

Station Type: Davis Vantage Pro2 (Daytime Fan Aspirated)

http://www.lfweathercenter.com/

High Low Average
Temperature 31.9°F-0.1°C 22.1°F-5.5°C 26.9°F-2.8°C
Dew Point 24.6°F-4.1°C 15.4°F-9.2°C 20.7°F-6.3°C
Winds 18.0 mph 29.0 kmh Calm Calm 9.0 mph W14.5 kmh W
Wind Gusts 27.0 mph43.5 kmh 7.0 mph11.3 kmh 18.0 mph29.0 kmh
Humidity 90% 68% 77%
Pressure 30.25 in1024.4 mb 30.09 in1019.0 mb -
Precipitation 0.00 in0.0 mm - -
Hour Temp Dew Point Humidity Winds Wind Gusts Pressure Precip Precip Rate Daily Precip Total
12:00 AM 31.3°F-0.4°C 24.6°F-4.1°C 76% 8.0 mph W12.9 kmh W 20.0 mph32.2 kmh 30.15 in1021.0 mb 0.00 in0.0 mm 0.00 in/hr0.0 mm/hr 0.00 in0.0 mm
12:10 AM 31.7°F-0.2°C 24.1°F-4.4°C 73% 11.0 mph WNW17.7 kmh WNW 16.0 mph25.7 kmh 30.15 in1021.0 mb 0.00 in0.0 mm 0.00 in/hr0.0 mm/hr 0.00 in0.0 mm
12:20 AM 31.9°F-0.1°C 23.6°F-4.7°C 71% 3.0 mph W4.8 kmh W 17.0 mph27.4 kmh 30.14 in1020.7 mb 0.00 in0.0 mm 0.00 in/hr0.0 mm/hr 0.00 in0.0 mm
12:30 AM 31.8°F-0.1°C 23.2°F-4.9°C 70% 7.0 mph W11.3 kmh W 21.0 mph33.8 kmh 30.14 in1020.7 mb 0.00 in0.0 mm 0.00 in/hr0.0 mm/hr 0.00 in0.0 mm
12:40 AM 31.8°F-0.1°C 23.2°F-4.9°C 70% 16.0 mph WSW25.7 kmh WSW 20.0 mph32.2 kmh 30.14 in1020.7 mb 0.00 in0.0 mm 0.00 in/hr0.0 mm/hr 0.00 in0.0 mm
12:50 AM 31.7°F-0.2°C 23.1°F-4.9°C 70% 17.0 mph W27.4 kmh W 19.0 mph30.6 kmh 30.14 in1020.7 mb 0.00 in0.0 mm 0.00 in/hr0.0 mm/hr 0.00 in0.0 mm
01:00 AM 31.6°F-0.2°C 23.0°F-5.0°C 70% 13.0 mph W20.9 kmh W 18.0 mph29.0 kmh 30.13 in1020.3 mb 0.00 in0.0 mm 0.00 in/hr0.0 mm/hr 0.00 in0.0 mm
01:10 AM 31.6°F-0.2°C 22.6°F-5.2°C 69% 15.0 mph W24.1 kmh W 18.0 mph29.0 kmh 30.13 in1020.3 mb 0.00 in0.0 mm 0.00 in/hr0.0 mm/hr 0.00 in0.0 mm
01:20 AM 31.5°F-0.3°C 22.9°F-5.1°C 70% 14.0 mph W22.5 kmh W 17.0 mph27.4 kmh 30.13 in1020.3 mb 0.00 in0.0 mm 0.00 in/hr0.0 mm/hr 0.00 in0.0 mm
01:30 AM 31.4°F-0.3°C 23.1°F-4.9°C 71% 7.0 mph SW11.3 kmh SW 15.0 mph24.1 kmh 30.13 in1020.3 mb 0.00 in0.0 mm 0.00 in/hr0.0 mm/hr 0.00 in0.0 mm
01:40 AM 31.4°F-0.3°C 23.8°F-4.6°C 73% 8.0 mph WSW12.9 kmh WSW 12.0 mph19.3 kmh 30.12 in1020.0 mb 0.00 in0.0 mm 0.00 in/hr0.0 mm/hr 0.00 in0.0 mm
01:50 AM 30.9°F-0.6°C 23.3°F-4.8°C 73% 18.0 mph WNW29.0 kmh WNW 20.0 mph32.2 kmh 30.13 in1020.3 mb 0.00 in0.0 mm 0.00 in/hr0.0 mm/hr 0.00 in0.0 mm
02:00 AM 30.1°F-1.1°C 23.5°F-4.7°C 76% 7.0 mph W11.3 kmh W 18.0 mph29.0 kmh 30.13 in1020.3 mb 0.00 in0.0 mm 0.00 in/hr0.0 mm/hr 0.00 in0.0 mm
02:10 AM 30.5°F-0.8°C 23.2°F-4.9°C 74% 10.0 mph WNW16.1 kmh WNW 20.0 mph32.2 kmh 30.13 in1020.3 mb 0.00 in0.0 mm 0.00 in/hr0.0 mm/hr 0.00 in0.0 mm
02:20 AM 30.6°F-0.8°C 21.7°F-5.7°C 69% 13.0 mph WSW20.9 kmh WSW 23.0 mph37.0 kmh 30.13 in1020.3 mb 0.00 in0.0 mm 0.00 in/hr0.0 mm/hr 0.00 in0.0 mm
02:30 AM 30.6°F-0.8°C 21.3°F-5.9°C 68% 18.0 mph WSW29.0 kmh WSW 18.0 mph29.0 kmh 30.13 in1020.3 mb 0.00 in0.0 mm 0.00 in/hr0.0 mm/hr 0.00 in0.0 mm
02:40 AM 30.5°F-0.8°C 21.2°F-6.0°C 68% 5.0 mph W8.0 kmh W 21.0 mph33.8 kmh 30.13 in1020.3 mb 0.00 in0.0 mm 0.00 in/hr0.0 mm/hr 0.00 in0.0 mm
02:50 AM 30.4°F-0.9°C 21.5°F-5.8°C 69% 12.0 mph W19.3 kmh W 21.0 mph33.8 kmh 30.14 in1020.7 mb 0.00 in0.0 mm 0.00 in/hr0.0 mm/hr 0.00 in0.0 mm
03:00 AM 30.0°F-1.1°C 22.1°F-5.5°C 72% 8.0 mph W12.9 kmh W 17.0 mph27.4 kmh 30.14 in1020.7 mb 0.00 in0.0 mm 0.00 in/hr0.0 mm/hr 0.00 in0.0 mm
03:10 AM 29.5°F-1.4°C 22.6°F-5.2°C 75% 14.0 mph W22.5 kmh W 24.0 mph38.6 kmh 30.14 in1020.7 mb 0.00 in0.0 mm 0.00 in/hr0.0 mm/hr 0.00 in0.0 mm
03:20 AM 29.4°F-1.4°C 22.5°F-5.3°C 75% 10.0 mph WSW16.1 kmh WSW 14.0 mph22.5 kmh 30.14 in1020.7 mb 0.00 in0.0 mm 0.00 in/hr0.0 mm/hr 0.00 in0.0 mm
03:30 AM 29.6°F-1.3°C 22.4°F-5.3°C 74% 13.0 mph W20.9 kmh W 18.0 mph29.0 kmh 30.13 in1020.3 mb 0.00 in0.0 mm 0.00 in/hr0.0 mm/hr 0.00 in0.0 mm
03:40 AM 29.9°F-1.2°C 21.3°F-5.9°C 70% 11.0 mph W17.7 kmh W 19.0 mph30.6 kmh 30.13 in1020.3 mb 0.00 in0.0 mm 0.00 in/hr0.0 mm/hr 0.00 in0.0 mm
03:50 AM 29.6°F-1.3°C 22.0°F-5.6°C 73% 14.0 mph W22.5 kmh W 19.0 mph30.6 kmh 30.13 in1020.3 mb 0.00 in0.0 mm 0.00 in/hr0.0 mm/hr 0.00 in0.0 mm
04:00 AM 29.6°F-1.3°C 21.0°F-6.1°C 70% 6.0 mph W9.7 kmh W 24.0 mph38.6 kmh 30.13 in1020.3 mb 0.00 in0.0 mm 0.00 in/hr0.0 mm/hr 0.00 in0.0 mm
04:10 AM 29.5°F-1.4°C 21.3°F-5.9°C 71% 3.0 mph W4.8 kmh W 19.0 mph30.6 kmh 30.13 in1020.3 mb 0.00 in0.0 mm 0.00 in/hr0.0 mm/hr 0.00 in0.0 mm
04:20 AM 29.4°F-1.4°C 21.5°F-5.8°C 72% 9.0 mph W14.5 kmh W 19.0 mph30.6 kmh 30.13 in1020.3 mb 0.00 in0.0 mm 0.00 in/hr0.0 mm/hr 0.00 in0.0 mm
04:30 AM 29.4°F-1.4°C 21.8°F-5.7°C 73% 15.0 mph W24.1 kmh W 17.0 mph27.4 kmh 30.13 in1020.3 mb 0.00 in0.0 mm 0.00 in/hr0.0 mm/hr 0.00 in0.0 mm
04:40 AM 29.0°F-1.7°C 22.1°F-5.5°C 75% 12.0 mph NW19.3 kmh NW 26.0 mph41.8 kmh 30.13 in1020.3 mb 0.00 in0.0 mm 0.00 in/hr0.0 mm/hr 0.00 in0.0 mm
04:50 AM 28.7°F-1.8°C 22.7°F-5.2°C 78% 5.0 mph W8.0 kmh W 16.0 mph25.7 kmh 30.13 in1020.3 mb 0.00 in0.0 mm 0.00 in/hr0.0 mm/hr 0.00 in0.0 mm
05:00 AM 28.7°F-1.8°C 22.4°F-5.3°C 77% 11.0 mph WSW17.7 kmh WSW 17.0 mph27.4 kmh 30.12 in1020.0 mb 0.00 in0.0 mm 0.00 in/hr0.0 mm/hr 0.00 in0.0 mm
05:10 AM 28.5°F-1.9°C 22.5°F-5.3°C 78% 4.0 mph WSW6.4 kmh WSW 16.0 mph25.7 kmh 30.12 in1020.0 mb 0.00 in0.0 mm 0.00 in/hr0.0 mm/hr 0.00 in0.0 mm
05:20 AM 28.6°F-1.9°C 22.3°F-5.4°C 77% 6.0 mph WSW9.7 kmh WSW 14.0 mph22.5 kmh 30.12 in1020.0 mb 0.00 in0.0 mm 0.00 in/hr0.0 mm/hr 0.00 in0.0 mm
05:30 AM 28.3°F-2.1°C 23.5°F-4.7°C 82% 7.0 mph WNW11.3 kmh WNW 14.0 mph22.5 kmh 30.12 in1020.0 mb 0.00 in0.0 mm 0.00 in/hr0.0 mm/hr 0.00 in0.0 mm
05:40 AM 27.5°F-2.5°C 23.9°F-4.5°C 86% 7.0 mph W11.3 kmh W 15.0 mph24.1 kmh 30.12 in1020.0 mb 0.00 in0.0 mm 0.00 in/hr0.0 mm/hr 0.00 in0.0 mm
05:50 AM 27.8°F-2.3°C 23.0°F-5.0°C 82% 15.0 mph WNW24.1 kmh WNW 25.0 mph40.2 kmh 30.12 in1020.0 mb 0.00 in0.0 mm 0.00 in/hr0.0 mm/hr 0.00 in0.0 mm
06:00 AM 27.9°F-2.3°C 22.2°F-5.4°C 79% 18.0 mph WSW29.0 kmh WSW 25.0 mph40.2 kmh 30.11 in1019.6 mb 0.00 in0.0 mm 0.00 in/hr0.0 mm/hr 0.00 in0.0 mm
06:10 AM 27.7°F-2.4°C 22.9°F-5.1°C 82% 11.0 mph W17.7 kmh W 23.0 mph37.0 kmh 30.11 in1019.6 mb 0.00 in0.0 mm 0.00 in/hr0.0 mm/hr 0.00 in0.0 mm
06:20 AM 27.5°F-2.5°C 23.0°F-5.0°C 83% 11.0 mph W17.7 kmh W 16.0 mph25.7 kmh 30.11 in1019.6 mb 0.00 in0.0 mm 0.00 in/hr0.0 mm/hr 0.00 in0.0 mm
06:30 AM 27.7°F-2.4°C 23.2°F-4.9°C 83% 3.0 mph W4.8 kmh W 15.0 mph24.1 kmh 30.11 in1019.6 mb 0.00 in0.0 mm 0.00 in/hr0.0 mm/hr 0.00 in0.0 mm
06:40 AM 27.7°F-2.4°C 23.5°F-4.7°C 84% 4.0 mph W6.4 kmh W 10.0 mph16.1 kmh 30.11 in1019.6 mb 0.00 in0.0 mm 0.00 in/hr0.0 mm/hr 0.00 in0.0 mm
06:50 AM 27.6°F-2.4°C 24.0°F-4.4°C 86% 2.0 mph WSW3.2 kmh WSW 10.0 mph16.1 kmh 30.11 in1019.6 mb 0.00 in0.0 mm 0.00 in/hr0.0 mm/hr 0.00 in0.0 mm
07:00 AM 27.3°F-2.6°C 24.2°F-4.3°C 88% 2.0 mph W3.2 kmh W 9.0 mph14.5 kmh 30.11 in1019.6 mb 0.01 in0.3 mm 0.01 in/hr0.3 mm/hr 0.01 in0.3 mm
07:10 AM 27.3°F-2.6°C 24.0°F-4.4°C 87% 5.0 mph WSW8.0 kmh WSW 11.0 mph17.7 kmh 30.10 in1019.3 mb 0.01 in0.3 mm 0.00 in/hr0.0 mm/hr 0.01 in0.3 mm
07:20 AM 27.5°F-2.5°C 23.9°F-4.5°C 86% 4.0 mph WSW6.4 kmh WSW 9.0 mph14.5 kmh 30.10 in1019.3 mb 0.01 in0.3 mm 0.00 in/hr0.0 mm/hr 0.01 in0.3 mm
07:30 AM 27.3°F-2.6°C 24.0°F-4.4°C 87% 4.0 mph WSW6.4 kmh WSW 11.0 mph17.7 kmh 30.10 in1019.3 mb 0.01 in0.3 mm 0.00 in/hr0.0 mm/hr 0.01 in0.3 mm
07:40 AM 27.4°F-2.6°C 24.1°F-4.4°C 87% Calm Calm 10.0 mph16.1 kmh 30.10 in1019.3 mb 0.01 in0.3 mm 0.00 in/hr0.0 mm/hr 0.01 in0.3 mm
07:50 AM 27.4°F-2.6°C 24.1°F-4.4°C 87% 6.0 mph SW9.7 kmh SW 7.0 mph11.3 kmh 30.09 in1019.0 mb 0.01 in0.3 mm 0.00 in/hr0.0 mm/hr 0.01 in0.3 mm
08:00 AM 27.7°F-2.4°C 23.5°F-4.7°C 84% 2.0 mph WSW3.2 kmh WSW 13.0 mph20.9 kmh 30.10 in1019.3 mb 0.00 in0.0 mm 0.00 in/hr0.0 mm/hr 0.01 in0.3 mm
08:10 AM 27.0°F-2.8°C 23.9°F-4.5°C 88% 12.0 mph W19.3 kmh W 17.0 mph27.4 kmh 30.11 in1019.6 mb 0.00 in0.0 mm 0.00 in/hr0.0 mm/hr 0.01 in0.3 mm
08:20 AM 26.6°F-3.0°C 24.1°F-4.4°C 90% 6.0 mph WSW9.7 kmh WSW 16.0 mph25.7 kmh 30.10 in1019.3 mb 0.00 in0.0 mm 0.00 in/hr0.0 mm/hr 0.01 in0.3 mm
08:30 AM 26.6°F-3.0°C 23.8°F-4.6°C 89% 5.0 mph WSW8.0 kmh WSW 13.0 mph20.9 kmh 30.10 in1019.3 mb 0.00 in0.0 mm 0.00 in/hr0.0 mm/hr 0.01 in0.3 mm
08:50 AM 26.7°F-2.9°C 23.1°F-4.9°C 86% 7.0 mph NNW11.3 kmh NNW 15.0 mph24.1 kmh 30.11 in1019.6 mb 0.00 in0.0 mm 0.00 in/hr0.0 mm/hr 0.01 in0.3 mm
09:00 AM 26.7°F-2.9°C 22.5°F-5.3°C 84% 8.0 mph W12.9 kmh W 15.0 mph24.1 kmh 30.11 in1019.6 mb 0.00 in0.0 mm 0.00 in/hr0.0 mm/hr 0.01 in0.3 mm
09:10 AM 26.8°F-2.9°C 22.3°F-5.4°C 83% 12.0 mph WNW19.3 kmh WNW 13.0 mph20.9 kmh 30.11 in1019.6 mb 0.01 in0.3 mm 0.06 in/hr1.5 mm/hr 0.02 in0.5 mm
09:20 AM 26.7°F-2.9°C 22.5°F-5.3°C 84% 9.0 mph WSW14.5 kmh WSW 11.0 mph17.7 kmh 30.11 in1019.6 mb 0.01 in0.3 mm 0.00 in/hr0.0 mm/hr 0.02 in0.5 mm
09:30 AM 26.5°F-3.1°C 22.9°F-5.1°C 86% 10.0 mph WSW16.1 kmh WSW 17.0 mph27.4 kmh 30.11 in1019.6 mb 0.01 in0.3 mm 0.00 in/hr0.0 mm/hr 0.02 in0.5 mm
09:40 AM 26.2°F-3.2°C 23.4°F-4.8°C 89% 11.0 mph N17.7 kmh N 15.0 mph24.1 kmh 30.12 in1020.0 mb 0.01 in0.3 mm 0.00 in/hr0.0 mm/hr 0.02 in0.5 mm
09:50 AM 25.8°F-3.4°C 23.3°F-4.8°C 90% 15.0 mph W24.1 kmh W 21.0 mph33.8 kmh 30.12 in1020.0 mb 0.02 in0.5 mm 0.06 in/hr1.5 mm/hr 0.03 in0.8 mm
10:01 AM 25.7°F-3.5°C 22.9°F-5.1°C 89% 10.0 mph W16.1 kmh W 14.0 mph22.5 kmh 30.12 in1020.0 mb 0.02 in0.5 mm 0.00 in/hr0.0 mm/hr 0.03 in0.8 mm
10:10 AM 25.6°F-3.6°C 22.6°F-5.2°C 88% 17.0 mph WSW27.4 kmh WSW 25.0 mph40.2 kmh 30.13 in1020.3 mb 0.01 in0.3 mm 0.00 in/hr0.0 mm/hr 0.03 in0.8 mm
10:20 AM 25.3°F-3.7°C 20.9°F-6.2°C 83% 4.0 mph WNW6.4 kmh WNW 22.0 mph35.4 kmh 30.14 in1020.7 mb 0.01 in0.3 mm 0.00 in/hr0.0 mm/hr 0.03 in0.8 mm
10:30 AM 25.5°F-3.6°C 19.6°F-6.9°C 78% 11.0 mph WNW17.7 kmh WNW 22.0 mph35.4 kmh 30.13 in1020.3 mb 0.01 in0.3 mm 0.00 in/hr0.0 mm/hr 0.03 in0.8 mm
10:40 AM 25.8°F-3.4°C 19.3°F-7.1°C 76% 9.0 mph W14.5 kmh W 27.0 mph43.5 kmh 30.14 in1020.7 mb 0.01 in0.3 mm 0.00 in/hr0.0 mm/hr 0.03 in0.8 mm
10:50 AM 26.1°F-3.3°C 19.9°F-6.7°C 77% 15.0 mph WSW24.1 kmh WSW 19.0 mph30.6 kmh 30.14 in1020.7 mb 0.00 in0.0 mm 0.00 in/hr0.0 mm/hr 0.03 in0.8 mm
11:00 AM 26.2°F-3.2°C 19.1°F-7.2°C 74% 14.0 mph NW22.5 kmh NW 20.0 mph32.2 kmh 30.14 in1020.7 mb 0.00 in0.0 mm 0.00 in/hr0.0 mm/hr 0.03 in0.8 mm
11:10 AM 26.5°F-3.1°C 18.4°F-7.6°C 71% 11.0 mph WSW17.7 kmh WSW 24.0 mph38.6 kmh 30.14 in1020.7 mb 0.00 in0.0 mm 0.00 in/hr0.0 mm/hr 0.03 in0.8 mm
11:20 AM 26.5°F-3.1°C 18.4°F-7.6°C 71% 10.0 mph W16.1 kmh W 25.0 mph40.2 kmh 30.14 in1020.7 mb 0.00 in0.0 mm 0.00 in/hr0.0 mm/hr 0.03 in0.8 mm
11:30 AM 26.1°F-3.3°C 17.3°F-8.2°C 69% 3.0 mph WNW4.8 kmh WNW 23.0 mph37.0 kmh 30.14 in1020.7 mb 0.00 in0.0 mm 0.00 in/hr0.0 mm/hr 0.03 in0.8 mm
11:40 AM 26.0°F-3.3°C 17.6°F-8.0°C 70% 11.0 mph W17.7 kmh W 25.0 mph40.2 kmh 30.15 in1021.0 mb 0.00 in0.0 mm 0.00 in/hr0.0 mm/hr 0.03 in0.8 mm
11:50 AM 25.8°F-3.4°C 18.0°F-7.8°C 72% 14.0 mph W22.5 kmh W 20.0 mph32.2 kmh 30.15 in1021.0 mb 0.00 in0.0 mm 0.00 in/hr0.0 mm/hr 0.03 in0.8 mm
12:00 PM 25.4°F-3.7°C 17.7°F-7.9°C 72% 13.0 mph W20.9 kmh W 23.0 mph37.0 kmh 30.15 in1021.0 mb 0.00 in0.0 mm 0.00 in/hr0.0 mm/hr 0.03 in0.8 mm
12:10 PM 25.1°F-3.8°C 17.4°F-8.1°C 72% 16.0 mph W25.7 kmh W 27.0 mph43.5 kmh 30.15 in1021.0 mb 0.00 in0.0 mm 0.00 in/hr0.0 mm/hr 0.03 in0.8 mm
12:20 PM 25.3°F-3.7°C 18.5°F-7.5°C 75% 12.0 mph W19.3 kmh W 18.0 mph29.0 kmh 30.15 in1021.0 mb 0.00 in0.0 mm 0.00 in/hr0.0 mm/hr 0.03 in0.8 mm
12:30 PM 24.9°F-3.9°C 18.1°F-7.7°C 75% 11.0 mph W17.7 kmh W 23.0 mph37.0 kmh 30.15 in1021.0 mb 0.00 in0.0 mm 0.00 in/hr0.0 mm/hr 0.03 in0.8 mm
12:40 PM 24.5°F-4.2°C 18.3°F-7.6°C 77% 16.0 mph WSW25.7 kmh WSW 20.0 mph32.2 kmh 30.15 in1021.0 mb 0.00 in0.0 mm 0.00 in/hr0.0 mm/hr 0.03 in0.8 mm
12:50 PM 24.4°F-4.2°C 18.2°F-7.7°C 77% 10.0 mph WSW16.1 kmh WSW 24.0 mph38.6 kmh 30.15 in1021.0 mb 0.00 in0.0 mm 0.00 in/hr0.0 mm/hr 0.03 in0.8 mm
01:00 PM 24.4°F-4.2°C 18.8°F-7.3°C 79% 16.0 mph WSW25.7 kmh WSW 20.0 mph32.2 kmh 30.15 in1021.0 mb 0.00 in0.0 mm 0.00 in/hr0.0 mm/hr 0.03 in0.8 mm
01:10 PM 24.3°F-4.3°C 19.6°F-6.9°C 82% 15.0 mph WSW24.1 kmh WSW 22.0 mph35.4 kmh 30.15 in1021.0 mb 0.00 in0.0 mm 0.00 in/hr0.0 mm/hr 0.03 in0.8 mm
01:20 PM 24.3°F-4.3°C 19.9°F-6.7°C 83% 15.0 mph WSW24.1 kmh WSW 19.0 mph30.6 kmh 30.14 in1020.7 mb 0.00 in0.0 mm 0.00 in/hr0.0 mm/hr 0.03 in0.8 mm
01:30 PM 24.3°F-4.3°C 19.9°F-6.7°C 83% 7.0 mph W11.3 kmh W 17.0 mph27.4 kmh 30.15 in1021.0 mb 0.00 in0.0 mm 0.00 in/hr0.0 mm/hr 0.03 in0.8 mm
01:40 PM 23.8°F-4.6°C 20.2°F-6.6°C 86% 5.0 mph WNW8.0 kmh WNW 18.0 mph29.0 kmh 30.15 in1021.0 mb 0.00 in0.0 mm 0.00 in/hr0.0 mm/hr 0.03 in0.8 mm
01:50 PM 24.2°F-4.3°C 19.8°F-6.8°C 83% 10.0 mph W16.1 kmh W 17.0 mph27.4 kmh 30.15 in1021.0 mb 0.00 in0.0 mm 0.00 in/hr0.0 mm/hr 0.03 in0.8 mm
02:20 PM 24.4°F-4.2°C 18.8°F-7.3°C 79% 7.0 mph WNW11.3 kmh WNW 17.0 mph27.4 kmh 30.15 in1021.0 mb 0.00 in0.0 mm 0.00 in/hr0.0 mm/hr 0.03 in0.8 mm
02:30 PM 24.7°F-4.1°C 19.4°F-7.0°C 80% 14.0 mph W22.5 kmh W 19.0 mph30.6 kmh 30.16 in1021.3 mb 0.00 in0.0 mm 0.00 in/hr0.0 mm/hr 0.03 in0.8 mm
02:40 PM 24.7°F-4.1°C 18.5°F-7.5°C 77% 10.0 mph W16.1 kmh W 19.0 mph30.6 kmh 30.16 in1021.3 mb 0.00 in0.0 mm 0.00 in/hr0.0 mm/hr 0.03 in0.8 mm
03:00 PM 24.4°F-4.2°C 17.9°F-7.8°C 76% 18.0 mph W29.0 kmh W 26.0 mph41.8 kmh 30.16 in1021.3 mb 0.00 in0.0 mm 0.00 in/hr0.0 mm/hr 0.03 in0.8 mm
03:10 PM 24.0°F-4.4°C 17.9°F-7.8°C 77% 2.0 mph WNW3.2 kmh WNW 19.0 mph30.6 kmh 30.17 in1021.7 mb 0.00 in0.0 mm 0.00 in/hr0.0 mm/hr 0.03 in0.8 mm
03:20 PM 24.6°F-4.1°C 17.5°F-8.1°C 74% 7.0 mph WNW11.3 kmh WNW 19.0 mph30.6 kmh 30.18 in1022.0 mb 0.00 in0.0 mm 0.00 in/hr0.0 mm/hr 0.03 in0.8 mm
03:30 PM 24.6°F-4.1°C 18.1°F-7.7°C 76% 7.0 mph NW11.3 kmh NW 18.0 mph29.0 kmh 30.18 in1022.0 mb 0.00 in0.0 mm 0.00 in/hr0.0 mm/hr 0.03 in0.8 mm
03:40 PM 23.9°F-4.5°C 16.8°F-8.4°C 74% 2.0 mph W3.2 kmh W 14.0 mph22.5 kmh 30.18 in1022.0 mb 0.00 in0.0 mm 0.00 in/hr0.0 mm/hr 0.03 in0.8 mm
03:50 PM 24.3°F-4.3°C 16.6°F-8.6°C 72% 4.0 mph WNW6.4 kmh WNW 20.0 mph32.2 kmh 30.19 in1022.4 mb 0.00 in0.0 mm 0.00 in/hr0.0 mm/hr 0.03 in0.8 mm
04:01 PM 24.2°F-4.3°C 16.5°F-8.6°C 72% 10.0 mph NW16.1 kmh NW 16.0 mph25.7 kmh 30.19 in1022.4 mb 0.00 in0.0 mm 0.00 in/hr0.0 mm/hr 0.03 in0.8 mm
04:10 PM 24.3°F-4.3°C 16.9°F-8.4°C 73% 15.0 mph WSW24.1 kmh WSW 15.0 mph24.1 kmh 30.20 in1022.7 mb 0.00 in0.0 mm 0.00 in/hr0.0 mm/hr 0.03 in0.8 mm
04:20 PM 24.4°F-4.2°C 17.0°F-8.3°C 73% 7.0 mph W11.3 kmh W 17.0 mph27.4 kmh 30.20 in1022.7 mb 0.00 in0.0 mm 0.00 in/hr0.0 mm/hr 0.03 in0.8 mm
04:30 PM 24.6°F-4.1°C 17.2°F-8.2°C 73% 7.0 mph WNW11.3 kmh WNW 14.0 mph22.5 kmh 30.21 in1023.0 mb 0.00 in0.0 mm 0.00 in/hr0.0 mm/hr 0.03 in0.8 mm
04:40 PM 24.3°F-4.3°C 16.9°F-8.4°C 73% 3.0 mph WSW4.8 kmh WSW 16.0 mph25.7 kmh 30.21 in1023.0 mb 0.00 in0.0 mm 0.00 in/hr0.0 mm/hr 0.03 in0.8 mm
04:50 PM 24.3°F-4.3°C 15.6°F-9.1°C 69% 3.0 mph WNW4.8 kmh WNW 14.0 mph22.5 kmh 30.22 in1023.4 mb 0.00 in0.0 mm 0.00 in/hr0.0 mm/hr 0.03 in0.8 mm
05:00 PM 24.3°F-4.3°C 15.6°F-9.1°C 69% 8.0 mph NW12.9 kmh NW 17.0 mph27.4 kmh 30.22 in1023.4 mb 0.00 in0.0 mm 0.00 in/hr0.0 mm/hr 0.03 in0.8 mm
05:10 PM 23.9°F-4.5°C 15.9°F-8.9°C 71% 9.0 mph SW14.5 kmh SW 18.0 mph29.0 kmh 30.23 in1023.7 mb 0.00 in0.0 mm 0.00 in/hr0.0 mm/hr 0.03 in0.8 mm
05:20 PM 23.2°F-4.9°C 16.5°F-8.6°C 75% 15.0 mph NW24.1 kmh NW 21.0 mph33.8 kmh 30.23 in1023.7 mb 0.00 in0.0 mm 0.00 in/hr0.0 mm/hr 0.03 in0.8 mm
05:30 PM 22.7°F-5.2°C 16.6°F-8.6°C 77% 10.0 mph W16.1 kmh W 18.0 mph29.0 kmh 30.24 in1024.0 mb 0.00 in0.0 mm 0.00 in/hr0.0 mm/hr 0.03 in0.8 mm
05:40 PM 22.7°F-5.2°C 16.6°F-8.6°C 77% Calm Calm 17.0 mph27.4 kmh 30.24 in1024.0 mb 0.00 in0.0 mm 0.00 in/hr0.0 mm/hr 0.03 in0.8 mm
05:50 PM 22.5°F-5.3°C 16.1°F-8.8°C 76% 5.0 mph W8.0 kmh W 13.0 mph20.9 kmh 30.24 in1024.0 mb 0.00 in0.0 mm 0.00 in/hr0.0 mm/hr 0.03 in0.8 mm
06:00 PM 22.2°F-5.4°C 15.8°F-9.0°C 76% 7.0 mph NW11.3 kmh NW 13.0 mph20.9 kmh 30.24 in1024.0 mb 0.00 in0.0 mm 0.00 in/hr0.0 mm/hr 0.03 in0.8 mm
06:10 PM 22.1°F-5.5°C 15.7°F-9.1°C 76% 7.0 mph NW11.3 kmh NW 10.0 mph16.1 kmh 30.25 in1024.4 mb 0.00 in0.0 mm 0.00 in/hr0.0 mm/hr 0.03 in0.8 mm
06:20 PM 22.1°F-5.5°C 15.7°F-9.1°C 76% 5.0 mph NW8.0 kmh NW 13.0 mph20.9 kmh 30.25 in1024.4 mb 0.00 in0.0 mm 0.00 in/hr0.0 mm/hr 0.03 in0.8 mm
06:30 PM 22.4°F-5.3°C 15.4°F-9.2°C 74% 4.0 mph W6.4 kmh W 19.0 mph30.6 kmh 30.25 in1024.4 mb 0.00 in0.0 mm 0.00 in/hr0.0 mm/hr 0.03 in0.8 mm
06:40 PM 22.4°F-5.3°C 15.4°F-9.2°C 74% 2.0 mph WNW3.2 kmh WNW 12.0 mph19.3 kmh 30.26 in1024.7 mb 0.00 in0.0 mm 0.00 in/hr0.0 mm/hr 0.03 in0.8 mm
06:50 PM 22.2°F-5.4°C 15.2°F-9.3°C 74% 1.0 mph WNW1.6 kmh WNW 14.0 mph22.5 kmh 30.26 in1024.7 mb 0.00 in0.0 mm 0.00 in/hr0.0 mm/hr 0.03 in0.8 mm
07:00 PM 22.1°F-5.5°C 15.4°F-9.2°C 75% 10.0 mph WNW16.1 kmh WNW 14.0 mph22.5 kmh 30.26 in1024.7 mb 0.00 in0.0 mm 0.00 in/hr0.0 mm/hr 0.03 in0.8 mm
07:10 PM 22.1°F-5.5°C 15.1°F-9.4°C 74% 5.0 mph WNW8.0 kmh WNW 17.0 mph27.4 kmh 30.26 in1024.7 mb 0.00 in0.0 mm 0.00 in/hr0.0 mm/hr 0.03 in0.8 mm
07:20 PM 22.0°F-5.6°C 15.0°F-9.4°C 74% Calm Calm 15.0 mph24.1 kmh 30.26 in1024.7 mb 0.00 in0.0 mm 0.00 in/hr0.0 mm/hr 0.03 in0.8 mm
07:30 PM 22.0°F-5.6°C 15.0°F-9.4°C 74% 10.0 mph W16.1 kmh W 16.0 mph25.7 kmh 30.27 in1025.1 mb 0.00 in0.0 mm 0.00 in/hr0.0 mm/hr 0.03 in0.8 mm
07:40 PM 22.0°F-5.6°C 15.3°F-9.3°C 75% 2.0 mph W3.2 kmh W 18.0 mph29.0 kmh 30.27 in1025.1 mb 0.00 in0.0 mm 0.00 in/hr0.0 mm/hr 0.03 in0.8 mm
07:51 PM 21.9°F-5.6°C 14.9°F-9.5°C 74% 3.0 mph W4.8 kmh W 16.0 mph25.7 kmh 30.27 in1025.1 mb 0.00 in0.0 mm 0.00 in/hr0.0 mm/hr 0.03 in0.8 mm
08:01 PM 21.8°F-5.7°C 15.1°F-9.4°C 75% 11.0 mph W17.7 kmh W 13.0 mph20.9 kmh 30.27 in1025.1 mb 0.00 in0.0 mm 0.00 in/hr0.0 mm/hr 0.03 in0.8 mm
08:10 PM 21.7°F-5.7°C 15.0°F-9.4°C 75% 5.0 mph WNW8.0 kmh WNW 14.0 mph22.5 kmh 30.27 in1025.1 mb 0.00 in0.0 mm 0.00 in/hr0.0 mm/hr 0.03 in0.8 mm
08:20 PM 21.5°F-5.8°C 14.8°F-9.6°C 75% 1.0 mph W1.6 kmh W 16.0 mph25.7 kmh 30.28 in1025.4 mb 0.00 in0.0 mm 0.00 in/hr0.0 mm/hr 0.03 in0.8 mm
08:31 PM 21.2°F-6.0°C 14.2°F-9.9°C 74% 9.0 mph W14.5 kmh W 16.0 mph25.7 kmh 30.28 in1025.4 mb 0.00 in0.0 mm 0.00 in/hr0.0 mm/hr 0.03 in0.8 mm
08:41 PM 20.9°F-6.2°C 13.9°F-10.1°C 74% 9.0 mph WNW14.5 kmh WNW 12.0 mph19.3 kmh 30.28 in1025.4 mb 0.00 in0.0 mm 0.00 in/hr0.0 mm/hr 0.03 in0.8 mm
08:50 PM 20.9°F-6.2°C 13.9°F-10.1°C 74% 5.0 mph WNW8.0 kmh WNW 16.0 mph25.7 kmh 30.28 in1025.4 mb 0.00 in0.0 mm 0.00 in/hr0.0 mm/hr 0.03 in0.8 mm
09:01 PM 20.9°F-6.2°C 13.9°F-10.1°C 74% 4.0 mph NW6.4 kmh NW 18.0 mph29.0 kmh 30.28 in1025.4 mb 0.00 in0.0 mm 0.00 in/hr0.0 mm/hr 0.03 in0.8 mm
09:10 PM 20.8°F-6.2°C 13.8°F-10.1°C 74% 5.0 mph WSW8.0 kmh WSW 15.0 mph24.1 kmh 30.28 in1025.4 mb 0.00 in0.0 mm 0.00 in/hr0.0 mm/hr 0.03 in0.8 mm
09:20 PM 20.6°F-6.3°C 14.0°F-10.0°C 75% Calm Calm 14.0 mph22.5 kmh 30.29 in1025.7 mb 0.00 in0.0 mm 0.00 in/hr0.0 mm/hr 0.03 in0.8 mm
09:30 PM 20.6°F-6.3°C 14.0°F-10.0°C 75% 11.0 mph WNW17.7 kmh WNW 16.0 mph25.7 kmh 30.29 in1025.7 mb 0.00 in0.0 mm 0.00 in/hr0.0 mm/hr 0.03 in0.8 mm
09:40 PM 20.6°F-6.3°C 14.0°F-10.0°C 75% 9.0 mph W14.5 kmh W 15.0 mph24.1 kmh 30.29 in1025.7 mb 0.00 in0.0 mm 0.00 in/hr0.0 mm/hr 0.03 in0.8 mm
09:50 PM 20.3°F-6.5°C 13.7°F-10.2°C 75% 1.0 mph WNW1.6 kmh WNW 19.0 mph30.6 kmh 30.29 in1025.7 mb 0.00 in0.0 mm 0.00 in/hr0.0 mm/hr 0.03 in0.8 mm
10:01 PM 20.4°F-6.4°C 13.8°F-10.1°C 75% 2.0 mph NW3.2 kmh NW 14.0 mph22.5 kmh 30.30 in1026.1 mb 0.00 in0.0 mm 0.00 in/hr0.0 mm/hr 0.03 in0.8 mm
10:11 PM 20.5°F-6.4°C 13.5°F-10.3°C 74% 5.0 mph WNW8.0 kmh WNW 13.0 mph20.9 kmh 30.30 in1026.1 mb 0.00 in0.0 mm 0.00 in/hr0.0 mm/hr 0.03 in0.8 mm
10:21 PM 20.5°F-6.4°C 13.5°F-10.3°C 74% 6.0 mph WNW9.7 kmh WNW 15.0 mph24.1 kmh 30.30 in1026.1 mb 0.00 in0.0 mm 0.00 in/hr0.0 mm/hr 0.03 in0.8 mm
10:31 PM 20.6°F-6.3°C 14.0°F-10.0°C 75% 11.0 mph NW17.7 kmh NW 14.0 mph22.5 kmh 30.30 in1026.1 mb 0.00 in0.0 mm 0.00 in/hr0.0 mm/hr 0.03 in0.8 mm
10:41 PM 20.7°F-6.3°C 14.4°F-9.8°C 76% 2.0 mph NW3.2 kmh NW 7.0 mph11.3 kmh 30.30 in1026.1 mb 0.00 in0.0 mm 0.00 in/hr0.0 mm/hr 0.03 in0.8 mm
10:51 PM 21.0°F-6.1°C 14.0°F-10.0°C 74% 4.0 mph W6.4 kmh W 12.0 mph19.3 kmh 30.30 in1026.1 mb 0.00 in0.0 mm 0.00 in/hr0.0 mm/hr 0.03 in0.8 mm
11:01 PM 21.2°F-6.0°C 14.2°F-9.9°C 74% 4.0 mph NW6.4 kmh NW 14.0 mph22.5 kmh 30.31 in1026.4 mb 0.00 in0.0 mm 0.00 in/hr0.0 mm/hr 0.03 in0.8 mm
11:11 PM 21.2°F-6.0°C 14.2°F-9.9°C 74% 10.0 mph WSW16.1 kmh WSW 17.0 mph27.4 kmh 30.31 in1026.4 mb 0.00 in0.0 mm 0.00 in/hr0.0 mm/hr 0.03 in0.8 mm
11:21 PM 21.3°F-5.9°C 14.6°F-9.7°C 75% 9.0 mph WNW14.5 kmh WNW 13.0 mph20.9 kmh 30.31 in1026.4 mb 0.00 in0.0 mm 0.00 in/hr0.0 mm/hr 0.03 in0.8 mm
11:31 PM 21.3°F-5.9°C 14.6°F-9.7°C 75% 5.0 mph NW8.0 kmh NW 11.0 mph17.7 kmh 30.31 in1026.4 mb 0.00 in0.0 mm 0.00 in/hr0.0 mm/hr 0.03 in0.8 mm
11:41 PM 21.5°F-5.8°C 14.8°F-9.6°C 75% 3.0 mph WNW4.8 kmh WNW 12.0 mph19.3 kmh 30.31 in1026.4 mb 0.00 in0.0 mm 0.00 in/hr0.0 mm/hr 0.03 in0.8 mm
11:51 PM 21.6°F-5.8°C 14.9°F-9.5°C 75% 7.0 mph WNW11.3 kmh WNW 13.0 mph20.9 kmh 30.31 in1026.4 mb 0.00 in0.0 mm 0.00 in/hr0.0 mm/hr 0.03 in0.8 mm